sensor_id;sensor_type;location;lat;lon;timestamp;P1;durP1;ratioP1;P2;durP2;ratioP2
64335;SDS011;50672;53.362;-6.240;2022-07-29T00:01:48;9.40;;;7.60;;
64335;SDS011;50672;53.362;-6.240;2022-07-29T00:04:15;11.13;;;7.30;;
64335;SDS011;50672;53.362;-6.240;2022-07-29T00:06:43;8.20;;;6.97;;
64335;SDS011;50672;53.362;-6.240;2022-07-29T00:09:10;9.90;;;7.00;;
64335;SDS011;50672;53.362;-6.240;2022-07-29T00:11:37;9.37;;;7.43;;
64335;SDS011;50672;53.362;-6.240;2022-07-29T00:14:03;8.90;;;7.30;;
64335;SDS011;50672;53.362;-6.240;2022-07-29T00:16:30;9.47;;;7.57;;
64335;SDS011;50672;53.362;-6.240;2022-07-29T00:18:57;8.00;;;6.63;;
64335;SDS011;50672;53.362;-6.240;2022-07-29T00:21:27;10.03;;;8.03;;
64335;SDS011;50672;53.362;-6.240;2022-07-29T00:23:54;9.57;;;7.17;;
64335;SDS011;50672;53.362;-6.240;2022-07-29T00:26:21;9.97;;;7.77;;
64335;SDS011;50672;53.362;-6.240;2022-07-29T00:28:48;10.50;;;7.53;;
64335;SDS011;50672;53.362;-6.240;2022-07-29T00:31:14;10.87;;;7.77;;
64335;SDS011;50672;53.362;-6.240;2022-07-29T00:33:41;10.93;;;7.30;;
64335;SDS011;50672;53.362;-6.240;2022-07-29T00:36:08;9.60;;;7.30;;
64335;SDS011;50672;53.362;-6.240;2022-07-29T00:38:35;11.27;;;7.50;;
64335;SDS011;50672;53.362;-6.240;2022-07-29T00:41:02;9.13;;;6.73;;
64335;SDS011;50672;53.362;-6.240;2022-07-29T00:43:29;9.70;;;7.53;;
64335;SDS011;50672;53.362;-6.240;2022-07-29T00:45:56;9.23;;;7.27;;
64335;SDS011;50672;53.362;-6.240;2022-07-29T00:48:23;10.90;;;7.70;;
64335;SDS011;50672;53.362;-6.240;2022-07-29T00:50:50;11.13;;;7.23;;
64335;SDS011;50672;53.362;-6.240;2022-07-29T00:53:17;8.93;;;6.77;;
64335;SDS011;50672;53.362;-6.240;2022-07-29T00:55:45;8.47;;;6.60;;
64335;SDS011;50672;53.362;-6.240;2022-07-29T00:58:12;7.90;;;5.90;;
64335;SDS011;50672;53.362;-6.240;2022-07-29T01:00:41;7.53;;;6.23;;
64335;SDS011;50672;53.362;-6.240;2022-07-29T01:03:10;9.67;;;6.47;;
64335;SDS011;50672;53.362;-6.240;2022-07-29T01:05:37;8.23;;;6.47;;
64335;SDS011;50672;53.362;-6.240;2022-07-29T01:08:17;7.93;;;5.90;;
64335;SDS011;50672;53.362;-6.240;2022-07-29T01:10:44;10.67;;;6.37;;
64335;SDS011;50672;53.362;-6.240;2022-07-29T01:13:13;7.23;;;6.10;;
64335;SDS011;50672;53.362;-6.240;2022-07-29T01:15:46;10.20;;;6.33;;
64335;SDS011;50672;53.362;-6.240;2022-07-29T01:18:22;8.50;;;6.33;;
64335;SDS011;50672;53.362;-6.240;2022-07-29T01:23:59;8.37;;;6.97;;
64335;SDS011;50672;53.362;-6.240;2022-07-29T01:26:57;9.30;;;6.33;;
64335;SDS011;50672;53.362;-6.240;2022-07-29T01:29:44;12.97;;;6.93;;
64335;SDS011;50672;53.362;-6.240;2022-07-29T01:32:15;10.88;;;7.13;;
64335;SDS011;50672;53.362;-6.240;2022-07-29T01:37:44;8.00;;;6.47;;
64335;SDS011;50672;53.362;-6.240;2022-07-29T01:43:24;10.47;;;6.30;;
64335;SDS011;50672;53.362;-6.240;2022-07-29T01:45:58;9.60;;;6.17;;
64335;SDS011;50672;53.362;-6.240;2022-07-29T01:51:34;8.50;;;6.80;;
64335;SDS011;50672;53.362;-6.240;2022-07-29T01:56:42;9.30;;;7.27;;
64335;SDS011;50672;53.362;-6.240;2022-07-29T01:59:11;9.23;;;6.60;;
64335;SDS011;50672;53.362;-6.240;2022-07-29T02:01:39;7.70;;;6.30;;
64335;SDS011;50672;53.362;-6.240;2022-07-29T02:04:09;14.77;;;11.13;;
64335;SDS011;50672;53.362;-6.240;2022-07-29T02:06:57;9.33;;;6.60;;
64335;SDS011;50672;53.362;-6.240;2022-07-29T02:11:56;10.50;;;7.30;;
64335;SDS011;50672;53.362;-6.240;2022-07-29T02:14:25;12.50;;;8.83;;
64335;SDS011;50672;53.362;-6.240;2022-07-29T02:16:55;13.07;;;8.87;;
64335;SDS011;50672;53.362;-6.240;2022-07-29T02:19:24;12.30;;;10.07;;
64335;SDS011;50672;53.362;-6.240;2022-07-29T02:21:53;13.57;;;10.33;;
64335;SDS011;50672;53.362;-6.240;2022-07-29T02:24:23;13.23;;;10.77;;
64335;SDS011;50672;53.362;-6.240;2022-07-29T02:26:52;13.67;;;10.40;;
64335;SDS011;50672;53.362;-6.240;2022-07-29T02:29:21;14.63;;;10.80;;
64335;SDS011;50672;53.362;-6.240;2022-07-29T02:31:50;14.63;;;10.40;;
64335;SDS011;50672;53.362;-6.240;2022-07-29T02:34:19;13.17;;;10.23;;
64335;SDS011;50672;53.362;-6.240;2022-07-29T02:36:47;17.43;;;10.40;;
64335;SDS011;50672;53.362;-6.240;2022-07-29T02:39:16;18.50;;;10.67;;
64335;SDS011;50672;53.362;-6.240;2022-07-29T02:41:46;13.93;;;9.63;;
64335;SDS011;50672;53.362;-6.240;2022-07-29T02:44:27;13.50;;;10.57;;
64335;SDS011;50672;53.362;-6.240;2022-07-29T02:49:54;12.50;;;8.77;;
64335;SDS011;50672;53.362;-6.240;2022-07-29T02:52:26;12.37;;;9.33;;
64335;SDS011;50672;53.362;-6.240;2022-07-29T02:55:02;12.87;;;9.53;;
64335;SDS011;50672;53.362;-6.240;2022-07-29T02:57:47;10.83;;;8.93;;
64335;SDS011;50672;53.362;-6.240;2022-07-29T03:00:21;13.60;;;9.90;;
64335;SDS011;50672;53.362;-6.240;2022-07-29T03:02:53;11.20;;;8.73;;
64335;SDS011;50672;53.362;-6.240;2022-07-29T03:05:24;10.23;;;8.10;;
64335;SDS011;50672;53.362;-6.240;2022-07-29T03:07:53;11.00;;;8.13;;
64335;SDS011;50672;53.362;-6.240;2022-07-29T03:10:25;12.67;;;8.73;;
64335;SDS011;50672;53.362;-6.240;2022-07-29T03:12:54;12.33;;;8.83;;
64335;SDS011;50672;53.362;-6.240;2022-07-29T03:15:22;12.30;;;8.10;;
64335;SDS011;50672;53.362;-6.240;2022-07-29T03:17:50;9.03;;;7.83;;
64335;SDS011;50672;53.362;-6.240;2022-07-29T03:20:18;10.83;;;7.00;;
64335;SDS011;50672;53.362;-6.240;2022-07-29T03:22:46;8.23;;;6.53;;
64335;SDS011;50672;53.362;-6.240;2022-07-29T03:25:17;8.20;;;6.03;;
64335;SDS011;50672;53.362;-6.240;2022-07-29T03:27:45;6.57;;;5.00;;
64335;SDS011;50672;53.362;-6.240;2022-07-29T03:30:13;6.87;;;5.53;;
64335;SDS011;50672;53.362;-6.240;2022-07-29T03:32:47;9.47;;;5.70;;
64335;SDS011;50672;53.362;-6.240;2022-07-29T03:35:17;7.27;;;4.70;;
64335;SDS011;50672;53.362;-6.240;2022-07-29T03:37:45;5.50;;;2.70;;
64335;SDS011;50672;53.362;-6.240;2022-07-29T03:40:13;4.40;;;2.60;;
64335;SDS011;50672;53.362;-6.240;2022-07-29T03:42:46;4.93;;;2.63;;
64335;SDS011;50672;53.362;-6.240;2022-07-29T03:45:15;3.80;;;2.87;;
64335;SDS011;50672;53.362;-6.240;2022-07-29T03:47:50;2.73;;;2.40;;
64335;SDS011;50672;53.362;-6.240;2022-07-29T03:50:26;4.83;;;2.37;;
64335;SDS011;50672;53.362;-6.240;2022-07-29T03:52:55;3.87;;;2.27;;
64335;SDS011;50672;53.362;-6.240;2022-07-29T03:55:22;3.07;;;2.27;;
64335;SDS011;50672;53.362;-6.240;2022-07-29T03:57:49;5.73;;;3.03;;
64335;SDS011;50672;53.362;-6.240;2022-07-29T04:00:17;6.57;;;2.67;;
64335;SDS011;50672;53.362;-6.240;2022-07-29T04:02:45;7.63;;;3.37;;
64335;SDS011;50672;53.362;-6.240;2022-07-29T04:05:15;4.77;;;2.17;;
64335;SDS011;50672;53.362;-6.240;2022-07-29T04:07:46;5.27;;;2.43;;
64335;SDS011;50672;53.362;-6.240;2022-07-29T04:10:14;3.63;;;2.30;;
64335;SDS011;50672;53.362;-6.240;2022-07-29T04:12:42;3.37;;;2.00;;
64335;SDS011;50672;53.362;-6.240;2022-07-29T04:15:09;3.57;;;2.13;;
64335;SDS011;50672;53.362;-6.240;2022-07-29T04:17:36;3.30;;;1.70;;
64335;SDS011;50672;53.362;-6.240;2022-07-29T04:20:04;3.43;;;1.90;;
64335;SDS011;50672;53.362;-6.240;2022-07-29T04:22:31;3.20;;;1.90;;
64335;SDS011;50672;53.362;-6.240;2022-07-29T04:24:58;3.63;;;2.13;;
64335;SDS011;50672;53.362;-6.240;2022-07-29T04:27:29;3.40;;;2.30;;
64335;SDS011;50672;53.362;-6.240;2022-07-29T04:29:56;4.07;;;2.07;;
64335;SDS011;50672;53.362;-6.240;2022-07-29T04:32:23;3.30;;;2.00;;
64335;SDS011;50672;53.362;-6.240;2022-07-29T04:34:50;2.70;;;2.23;;
64335;SDS011;50672;53.362;-6.240;2022-07-29T04:37:17;3.50;;;1.90;;
64335;SDS011;50672;53.362;-6.240;2022-07-29T04:39:44;3.40;;;1.90;;
64335;SDS011;50672;53.362;-6.240;2022-07-29T04:42:11;3.20;;;2.03;;
64335;SDS011;50672;53.362;-6.240;2022-07-29T04:44:38;3.67;;;2.17;;
64335;SDS011;50672;53.362;-6.240;2022-07-29T04:47:08;3.93;;;2.40;;
64335;SDS011;50672;53.362;-6.240;2022-07-29T04:49:38;2.90;;;2.00;;
64335;SDS011;50672;53.362;-6.240;2022-07-29T04:52:06;2.87;;;1.77;;
64335;SDS011;50672;53.362;-6.240;2022-07-29T04:54:33;2.43;;;1.63;;
64335;SDS011;50672;53.362;-6.240;2022-07-29T04:56:59;4.50;;;2.30;;
64335;SDS011;50672;53.362;-6.240;2022-07-29T04:59:26;2.50;;;2.10;;
64335;SDS011;50672;53.362;-6.240;2022-07-29T05:01:54;4.67;;;2.60;;
64335;SDS011;50672;53.362;-6.240;2022-07-29T05:04:20;6.50;;;2.30;;
64335;SDS011;50672;53.362;-6.240;2022-07-29T05:06:47;3.60;;;2.53;;
64335;SDS011;50672;53.362;-6.240;2022-07-29T05:09:14;4.50;;;3.00;;
64335;SDS011;50672;53.362;-6.240;2022-07-29T05:11:41;2.87;;;2.53;;
64335;SDS011;50672;53.362;-6.240;2022-07-29T05:14:08;2.40;;;1.90;;
64335;SDS011;50672;53.362;-6.240;2022-07-29T05:16:35;3.43;;;1.93;;
64335;SDS011;50672;53.362;-6.240;2022-07-29T05:19:02;2.20;;;2.00;;
64335;SDS011;50672;53.362;-6.240;2022-07-29T05:21:29;2.93;;;2.03;;
64335;SDS011;50672;53.362;-6.240;2022-07-29T05:23:55;3.93;;;2.37;;
64335;SDS011;50672;53.362;-6.240;2022-07-29T05:26:22;2.27;;;2.07;;
64335;SDS011;50672;53.362;-6.240;2022-07-29T05:28:49;3.60;;;2.20;;
64335;SDS011;50672;53.362;-6.240;2022-07-29T05:31:16;6.43;;;2.70;;
64335;SDS011;50672;53.362;-6.240;2022-07-29T05:33:43;2.83;;;2.50;;
64335;SDS011;50672;53.362;-6.240;2022-07-29T05:36:10;2.50;;;2.27;;
64335;SDS011;50672;53.362;-6.240;2022-07-29T05:38:36;3.23;;;2.50;;
64335;SDS011;50672;53.362;-6.240;2022-07-29T05:41:04;3.90;;;2.57;;
64335;SDS011;50672;53.362;-6.240;2022-07-29T05:43:31;2.60;;;2.30;;
64335;SDS011;50672;53.362;-6.240;2022-07-29T05:45:58;2.70;;;2.50;;
64335;SDS011;50672;53.362;-6.240;2022-07-29T05:48:26;2.90;;;2.20;;
64335;SDS011;50672;53.362;-6.240;2022-07-29T05:50:53;3.23;;;2.50;;
64335;SDS011;50672;53.362;-6.240;2022-07-29T05:53:21;2.97;;;2.17;;
64335;SDS011;50672;53.362;-6.240;2022-07-29T05:55:48;3.53;;;2.43;;
64335;SDS011;50672;53.362;-6.240;2022-07-29T05:58:15;3.00;;;2.40;;
64335;SDS011;50672;53.362;-6.240;2022-07-29T06:00:42;3.30;;;2.10;;
64335;SDS011;50672;53.362;-6.240;2022-07-29T06:03:09;3.80;;;2.10;;
64335;SDS011;50672;53.362;-6.240;2022-07-29T06:05:36;4.40;;;2.10;;
64335;SDS011;50672;53.362;-6.240;2022-07-29T06:08:03;3.93;;;2.53;;
64335;SDS011;50672;53.362;-6.240;2022-07-29T06:10:36;4.73;;;3.60;;
64335;SDS011;50672;53.362;-6.240;2022-07-29T06:13:03;4.20;;;3.43;;
64335;SDS011;50672;53.362;-6.240;2022-07-29T06:15:30;5.10;;;2.93;;
64335;SDS011;50672;53.362;-6.240;2022-07-29T06:17:58;3.13;;;2.57;;
64335;SDS011;50672;53.362;-6.240;2022-07-29T06:20:30;2.80;;;2.30;;
64335;SDS011;50672;53.362;-6.240;2022-07-29T06:22:58;3.53;;;2.57;;
64335;SDS011;50672;53.362;-6.240;2022-07-29T06:25:26;4.73;;;2.57;;
64335;SDS011;50672;53.362;-6.240;2022-07-29T06:29:07;3.43;;;2.37;;
64335;SDS011;50672;53.362;-6.240;2022-07-29T06:31:37;2.50;;;2.17;;
64335;SDS011;50672;53.362;-6.240;2022-07-29T06:34:04;3.47;;;2.53;;
64335;SDS011;50672;53.362;-6.240;2022-07-29T06:36:35;6.37;;;2.50;;
64335;SDS011;50672;53.362;-6.240;2022-07-29T06:40:00;3.53;;;2.40;;
64335;SDS011;50672;53.362;-6.240;2022-07-29T06:43:27;3.00;;;2.00;;
64335;SDS011;50672;53.362;-6.240;2022-07-29T06:45:55;2.23;;;2.00;;
64335;SDS011;50672;53.362;-6.240;2022-07-29T06:48:22;4.40;;;1.93;;
64335;SDS011;50672;53.362;-6.240;2022-07-29T06:50:49;3.40;;;2.10;;
64335;SDS011;50672;53.362;-6.240;2022-07-29T06:53:16;3.50;;;1.97;;
64335;SDS011;50672;53.362;-6.240;2022-07-29T06:55:43;3.07;;;2.27;;
64335;SDS011;50672;53.362;-6.240;2022-07-29T06:58:10;2.90;;;2.20;;
64335;SDS011;50672;53.362;-6.240;2022-07-29T07:00:37;2.60;;;2.20;;
64335;SDS011;50672;53.362;-6.240;2022-07-29T07:03:04;4.80;;;2.57;;
64335;SDS011;50672;53.362;-6.240;2022-07-29T07:05:30;3.30;;;2.27;;
64335;SDS011;50672;53.362;-6.240;2022-07-29T07:07:58;2.50;;;1.50;;
64335;SDS011;50672;53.362;-6.240;2022-07-29T07:10:24;4.10;;;1.90;;
64335;SDS011;50672;53.362;-6.240;2022-07-29T07:12:51;1.70;;;1.60;;
64335;SDS011;50672;53.362;-6.240;2022-07-29T07:15:18;4.37;;;1.90;;
64335;SDS011;50672;53.362;-6.240;2022-07-29T07:18:04;3.20;;;1.67;;
64335;SDS011;50672;53.362;-6.240;2022-07-29T07:20:32;2.40;;;1.60;;
64335;SDS011;50672;53.362;-6.240;2022-07-29T07:23:00;4.87;;;1.60;;
64335;SDS011;50672;53.362;-6.240;2022-07-29T07:25:27;4.33;;;1.60;;
64335;SDS011;50672;53.362;-6.240;2022-07-29T07:27:54;3.70;;;2.00;;
64335;SDS011;50672;53.362;-6.240;2022-07-29T07:30:21;2.97;;;1.57;;
64335;SDS011;50672;53.362;-6.240;2022-07-29T07:33:47;1.90;;;1.57;;
64335;SDS011;50672;53.362;-6.240;2022-07-29T07:37:14;2.17;;;1.60;;
64335;SDS011;50672;53.362;-6.240;2022-07-29T07:40:41;4.43;;;2.63;;
64335;SDS011;50672;53.362;-6.240;2022-07-29T07:44:07;3.73;;;2.03;;
64335;SDS011;50672;53.362;-6.240;2022-07-29T07:46:41;5.27;;;2.20;;
64335;SDS011;50672;53.362;-6.240;2022-07-29T07:49:08;3.37;;;2.20;;
64335;SDS011;50672;53.362;-6.240;2022-07-29T07:52:46;5.53;;;2.77;;
64335;SDS011;50672;53.362;-6.240;2022-07-29T07:56:29;8.60;;;2.47;;
64335;SDS011;50672;53.362;-6.240;2022-07-29T07:59:56;7.20;;;2.20;;
64335;SDS011;50672;53.362;-6.240;2022-07-29T08:02:23;2.60;;;1.80;;
64335;SDS011;50672;53.362;-6.240;2022-07-29T08:04:55;4.40;;;1.76;;
64335;SDS011;50672;53.362;-6.240;2022-07-29T08:08:49;2.33;;;1.60;;
64335;SDS011;50672;53.362;-6.240;2022-07-29T08:12:17;2.33;;;1.47;;
64335;SDS011;50672;53.362;-6.240;2022-07-29T08:14:44;2.17;;;1.77;;
64335;SDS011;50672;53.362;-6.240;2022-07-29T08:17:11;2.83;;;1.80;;
64335;SDS011;50672;53.362;-6.240;2022-07-29T08:19:38;1.70;;;1.60;;
64335;SDS011;50672;53.362;-6.240;2022-07-29T08:22:05;3.13;;;1.50;;
64335;SDS011;50672;53.362;-6.240;2022-07-29T08:24:31;2.40;;;1.57;;
64335;SDS011;50672;53.362;-6.240;2022-07-29T08:27:13;4.50;;;1.70;;
64335;SDS011;50672;53.362;-6.240;2022-07-29T08:30:39;2.07;;;1.50;;
64335;SDS011;50672;53.362;-6.240;2022-07-29T08:34:31;2.47;;;1.97;;
64335;SDS011;50672;53.362;-6.240;2022-07-29T08:38:01;2.80;;;1.50;;
64335;SDS011;50672;53.362;-6.240;2022-07-29T08:41:28;2.90;;;1.90;;
64335;SDS011;50672;53.362;-6.240;2022-07-29T08:44:31;1.70;;;1.60;;
64335;SDS011;50672;53.362;-6.240;2022-07-29T08:46:58;2.57;;;1.60;;
64335;SDS011;50672;53.362;-6.240;2022-07-29T08:50:24;3.47;;;1.70;;
64335;SDS011;50672;53.362;-6.240;2022-07-29T08:54:09;1.83;;;1.50;;
64335;SDS011;50672;53.362;-6.240;2022-07-29T08:57:35;3.97;;;1.90;;
64335;SDS011;50672;53.362;-6.240;2022-07-29T09:01:03;5.60;;;1.60;;
64335;SDS011;50672;53.362;-6.240;2022-07-29T09:04:56;1.70;;;1.60;;
64335;SDS011;50672;53.362;-6.240;2022-07-29T09:07:26;1.80;;;1.40;;
64335;SDS011;50672;53.362;-6.240;2022-07-29T09:10:00;2.20;;;1.37;;
64335;SDS011;50672;53.362;-6.240;2022-07-29T09:12:28;3.70;;;1.60;;
64335;SDS011;50672;53.362;-6.240;2022-07-29T09:15:01;3.30;;;1.60;;
64335;SDS011;50672;53.362;-6.240;2022-07-29T09:18:04;3.20;;;1.30;;
64335;SDS011;50672;53.362;-6.240;2022-07-29T09:20:30;2.83;;;1.40;;
64335;SDS011;50672;53.362;-6.240;2022-07-29T09:23:16;2.30;;;1.47;;
64335;SDS011;50672;53.362;-6.240;2022-07-29T09:25:49;2.77;;;1.80;;
64335;SDS011;50672;53.362;-6.240;2022-07-29T09:28:17;3.00;;;1.60;;
64335;SDS011;50672;53.362;-6.240;2022-07-29T09:30:51;3.37;;;1.57;;
64335;SDS011;50672;53.362;-6.240;2022-07-29T09:33:20;2.57;;;1.63;;
64335;SDS011;50672;53.362;-6.240;2022-07-29T09:36:07;2.83;;;1.50;;
64335;SDS011;50672;53.362;-6.240;2022-07-29T09:38:35;2.00;;;1.37;;
64335;SDS011;50672;53.362;-6.240;2022-07-29T09:41:04;2.33;;;1.40;;
64335;SDS011;50672;53.362;-6.240;2022-07-29T09:43:32;3.23;;;1.03;;
64335;SDS011;50672;53.362;-6.240;2022-07-29T09:46:13;3.70;;;1.60;;
64335;SDS011;50672;53.362;-6.240;2022-07-29T09:52:25;3.07;;;1.70;;
64335;SDS011;50672;53.362;-6.240;2022-07-29T09:55:08;3.43;;;1.70;;
64335;SDS011;50672;53.362;-6.240;2022-07-29T09:59:07;4.67;;;2.07;;
64335;SDS011;50672;53.362;-6.240;2022-07-29T10:01:38;3.10;;;1.63;;
64335;SDS011;50672;53.362;-6.240;2022-07-29T10:04:05;2.77;;;1.73;;
64335;SDS011;50672;53.362;-6.240;2022-07-29T10:06:32;2.70;;;1.66;;
64335;SDS011;50672;53.362;-6.240;2022-07-29T10:09:11;3.83;;;2.00;;
64335;SDS011;50672;53.362;-6.240;2022-07-29T10:11:38;2.87;;;2.00;;
64335;SDS011;50672;53.362;-6.240;2022-07-29T10:14:21;2.47;;;2.00;;
64335;SDS011;50672;53.362;-6.240;2022-07-29T10:16:48;2.57;;;2.37;;
64335;SDS011;50672;53.362;-6.240;2022-07-29T10:19:15;2.47;;;2.27;;
64335;SDS011;50672;53.362;-6.240;2022-07-29T10:21:43;7.37;;;2.00;;
64335;SDS011;50672;53.362;-6.240;2022-07-29T10:24:11;3.13;;;1.83;;
64335;SDS011;50672;53.362;-6.240;2022-07-29T10:26:40;3.80;;;2.10;;
64335;SDS011;50672;53.362;-6.240;2022-07-29T10:29:08;2.87;;;2.10;;
64335;SDS011;50672;53.362;-6.240;2022-07-29T10:32:02;3.13;;;2.00;;
64335;SDS011;50672;53.362;-6.240;2022-07-29T10:43:45;2.90;;;2.07;;
64335;SDS011;50672;53.362;-6.240;2022-07-29T10:46:17;4.57;;;1.83;;
64335;SDS011;50672;53.362;-6.240;2022-07-29T10:54:17;5.03;;;2.30;;
64335;SDS011;50672;53.362;-6.240;2022-07-29T10:56:45;3.40;;;2.30;;
64335;SDS011;50672;53.362;-6.240;2022-07-29T11:01:47;5.93;;;2.60;;
64335;SDS011;50672;53.362;-6.240;2022-07-29T11:07:13;3.10;;;2.80;;
64335;SDS011;50672;53.362;-6.240;2022-07-29T11:09:42;4.63;;;2.90;;
64335;SDS011;50672;53.362;-6.240;2022-07-29T11:26:16;4.03;;;2.33;;
64335;SDS011;50672;53.362;-6.240;2022-07-29T11:31:52;4.30;;;2.00;;
64335;SDS011;50672;53.362;-6.240;2022-07-29T11:34:24;4.40;;;2.27;;
64335;SDS011;50672;53.362;-6.240;2022-07-29T11:44:58;4.43;;;1.67;;
64335;SDS011;50672;53.362;-6.240;2022-07-29T11:50:16;3.30;;;1.90;;
64335;SDS011;50672;53.362;-6.240;2022-07-29T11:52:53;6.73;;;2.00;;
64335;SDS011;50672;53.362;-6.240;2022-07-29T11:55:22;4.77;;;1.80;;
64335;SDS011;50672;53.362;-6.240;2022-07-29T11:57:59;4.33;;;1.67;;
64335;SDS011;50672;53.362;-6.240;2022-07-29T12:00:33;6.37;;;2.30;;
64335;SDS011;50672;53.362;-6.240;2022-07-29T12:03:04;4.07;;;2.30;;
64335;SDS011;50672;53.362;-6.240;2022-07-29T12:05:34;6.20;;;2.40;;
64335;SDS011;50672;53.362;-6.240;2022-07-29T12:08:59;4.73;;;2.60;;
64335;SDS011;50672;53.362;-6.240;2022-07-29T12:12:26;8.37;;;4.90;;
64335;SDS011;50672;53.362;-6.240;2022-07-29T12:16:03;17.23;;;7.07;;
64335;SDS011;50672;53.362;-6.240;2022-07-29T12:19:41;11.37;;;5.43;;
64335;SDS011;50672;53.362;-6.240;2022-07-29T12:22:09;7.77;;;3.40;;
64335;SDS011;50672;53.362;-6.240;2022-07-29T12:25:39;6.77;;;2.00;;
64335;SDS011;50672;53.362;-6.240;2022-07-29T12:29:02;7.10;;;2.20;;
64335;SDS011;50672;53.362;-6.240;2022-07-29T12:31:36;5.07;;;1.93;;
64335;SDS011;50672;53.362;-6.240;2022-07-29T12:35:10;4.77;;;2.10;;
64335;SDS011;50672;53.362;-6.240;2022-07-29T12:41:12;4.77;;;2.00;;
64335;SDS011;50672;53.362;-6.240;2022-07-29T12:43:51;6.50;;;1.90;;
64335;SDS011;50672;53.362;-6.240;2022-07-29T12:46:19;4.00;;;1.80;;
64335;SDS011;50672;53.362;-6.240;2022-07-29T12:48:52;3.53;;;1.92;;
64335;SDS011;50672;53.362;-6.240;2022-07-29T12:52:30;6.10;;;2.07;;
64335;SDS011;50672;53.362;-6.240;2022-07-29T12:55:57;3.10;;;1.77;;
64335;SDS011;50672;53.362;-6.240;2022-07-29T12:59:39;3.97;;;2.13;;
64335;SDS011;50672;53.362;-6.240;2022-07-29T13:02:46;7.07;;;2.60;;
64335;SDS011;50672;53.362;-6.240;2022-07-29T13:09:18;6.22;;;2.40;;
64335;SDS011;50672;53.362;-6.240;2022-07-29T13:13:10;3.33;;;1.80;;
64335;SDS011;50672;53.362;-6.240;2022-07-29T13:16:36;3.33;;;1.40;;
64335;SDS011;50672;53.362;-6.240;2022-07-29T13:19:32;2.80;;;1.47;;
64335;SDS011;50672;53.362;-6.240;2022-07-29T13:22:52;5.50;;;1.60;;
64335;SDS011;50672;53.362;-6.240;2022-07-29T13:26:19;5.97;;;1.63;;
64335;SDS011;50672;53.362;-6.240;2022-07-29T13:29:46;5.60;;;1.53;;
64335;SDS011;50672;53.362;-6.240;2022-07-29T13:33:29;2.70;;;1.63;;
64335;SDS011;50672;53.362;-6.240;2022-07-29T13:36:56;2.07;;;1.10;;
64335;SDS011;50672;53.362;-6.240;2022-07-29T13:39:22;1.60;;;1.10;;
64335;SDS011;50672;53.362;-6.240;2022-07-29T13:41:49;2.73;;;1.17;;
64335;SDS011;50672;53.362;-6.240;2022-07-29T13:45:16;2.33;;;1.20;;
64335;SDS011;50672;53.362;-6.240;2022-07-29T13:48:43;1.23;;;1.13;;
64335;SDS011;50672;53.362;-6.240;2022-07-29T13:52:09;2.88;;;0.90;;
64335;SDS011;50672;53.362;-6.240;2022-07-29T13:55:52;1.10;;;1.00;;
64335;SDS011;50672;53.362;-6.240;2022-07-29T13:59:19;1.40;;;1.10;;
64335;SDS011;50672;53.362;-6.240;2022-07-29T14:02:45;1.45;;;1.20;;
64335;SDS011;50672;53.362;-6.240;2022-07-29T14:06:38;1.38;;;0.90;;
64335;SDS011;50672;53.362;-6.240;2022-07-29T14:10:05;1.98;;;1.02;;
64335;SDS011;50672;53.362;-6.240;2022-07-29T14:13:31;2.67;;;0.90;;
64335;SDS011;50672;53.362;-6.240;2022-07-29T14:16:58;1.33;;;0.90;;
64335;SDS011;50672;53.362;-6.240;2022-07-29T14:20:24;2.55;;;1.10;;
64335;SDS011;50672;53.362;-6.240;2022-07-29T14:24:16;1.52;;;0.85;;
64335;SDS011;50672;53.362;-6.240;2022-07-29T14:27:46;2.35;;;1.17;;
64335;SDS011;50672;53.362;-6.240;2022-07-29T14:31:12;1.67;;;0.93;;
64335;SDS011;50672;53.362;-6.240;2022-07-29T14:34:39;2.67;;;1.00;;
64335;SDS011;50672;53.362;-6.240;2022-07-29T14:38:06;1.10;;;0.98;;
64335;SDS011;50672;53.362;-6.240;2022-07-29T14:42:00;0.90;;;0.90;;
64335;SDS011;50672;53.362;-6.240;2022-07-29T14:45:27;1.38;;;1.27;;
64335;SDS011;50672;53.362;-6.240;2022-07-29T14:48:54;2.75;;;1.10;;
64335;SDS011;50672;53.362;-6.240;2022-07-29T14:52:20;1.05;;;0.95;;
64335;SDS011;50672;53.362;-6.240;2022-07-29T14:55:47;1.80;;;1.02;;
64335;SDS011;50672;53.362;-6.240;2022-07-29T14:59:14;0.95;;;0.70;;
64335;SDS011;50672;53.362;-6.240;2022-07-29T15:02:40;2.30;;;1.00;;
64335;SDS011;50672;53.362;-6.240;2022-07-29T15:06:07;2.45;;;1.00;;
64335;SDS011;50672;53.362;-6.240;2022-07-29T15:09:34;1.17;;;0.90;;
64335;SDS011;50672;53.362;-6.240;2022-07-29T15:13:00;3.65;;;1.35;;
64335;SDS011;50672;53.362;-6.240;2022-07-29T15:16:43;2.13;;;1.45;;
64335;SDS011;50672;53.362;-6.240;2022-07-29T15:20:10;1.13;;;0.98;;
64335;SDS011;50672;53.362;-6.240;2022-07-29T15:23:37;1.90;;;1.02;;
64335;SDS011;50672;53.362;-6.240;2022-07-29T15:27:04;4.22;;;1.20;;
64335;SDS011;50672;53.362;-6.240;2022-07-29T15:30:30;1.05;;;0.93;;
64335;SDS011;50672;53.362;-6.240;2022-07-29T15:34:23;10.55;;;8.75;;
64335;SDS011;50672;53.362;-6.240;2022-07-29T16:07:10;1.92;;;0.75;;
64335;SDS011;50672;53.362;-6.240;2022-07-29T16:09:39;2.33;;;1.00;;
64335;SDS011;50672;53.362;-6.240;2022-07-29T16:13:06;1.63;;;0.95;;
64335;SDS011;50672;53.362;-6.240;2022-07-29T16:16:34;1.08;;;0.90;;
64335;SDS011;50672;53.362;-6.240;2022-07-29T16:20:01;0.85;;;0.70;;
64335;SDS011;50672;53.362;-6.240;2022-07-29T16:23:27;2.90;;;1.02;;
64335;SDS011;50672;53.362;-6.240;2022-07-29T16:27:10;0.98;;;0.85;;
64335;SDS011;50672;53.362;-6.240;2022-07-29T16:30:37;2.00;;;0.77;;
64335;SDS011;50672;53.362;-6.240;2022-07-29T16:34:03;2.53;;;0.90;;
64335;SDS011;50672;53.362;-6.240;2022-07-29T16:37:30;1.17;;;0.88;;
64335;SDS011;50672;53.362;-6.240;2022-07-29T16:40:57;1.98;;;1.10;;
64335;SDS011;50672;53.362;-6.240;2022-07-29T16:44:50;2.15;;;0.88;;
64335;SDS011;50672;53.362;-6.240;2022-07-29T16:48:17;1.60;;;1.10;;
64335;SDS011;50672;53.362;-6.240;2022-07-29T16:51:44;1.90;;;1.05;;
64335;SDS011;50672;53.362;-6.240;2022-07-29T16:55:26;1.57;;;1.10;;
64335;SDS011;50672;53.362;-6.240;2022-07-29T16:58:53;1.65;;;0.90;;
64335;SDS011;50672;53.362;-6.240;2022-07-29T17:02:19;2.60;;;0.90;;
64335;SDS011;50672;53.362;-6.240;2022-07-29T17:05:46;2.95;;;1.00;;
64335;SDS011;50672;53.362;-6.240;2022-07-29T17:09:12;2.30;;;1.10;;
64335;SDS011;50672;53.362;-6.240;2022-07-29T17:13:06;1.08;;;0.70;;
64335;SDS011;50672;53.362;-6.240;2022-07-29T17:16:34;1.65;;;0.90;;
64335;SDS011;50672;53.362;-6.240;2022-07-29T17:20:19;2.40;;;1.00;;
64335;SDS011;50672;53.362;-6.240;2022-07-29T17:24:01;2.70;;;1.00;;
64335;SDS011;50672;53.362;-6.240;2022-07-29T17:26:29;2.28;;;1.27;;
64335;SDS011;50672;53.362;-6.240;2022-07-29T17:28:56;2.50;;;1.10;;
64335;SDS011;50672;53.362;-6.240;2022-07-29T17:31:22;1.80;;;0.77;;
64335;SDS011;50672;53.362;-6.240;2022-07-29T17:34:49;1.58;;;0.85;;
64335;SDS011;50672;53.362;-6.240;2022-07-29T17:37:16;2.25;;;1.10;;
64335;SDS011;50672;53.362;-6.240;2022-07-29T17:39:43;1.92;;;1.40;;
64335;SDS011;50672;53.362;-6.240;2022-07-29T17:42:10;2.42;;;1.30;;
64335;SDS011;50672;53.362;-6.240;2022-07-29T17:44:39;2.95;;;1.30;;
64335;SDS011;50672;53.362;-6.240;2022-07-29T17:48:15;2.80;;;1.30;;
64335;SDS011;50672;53.362;-6.240;2022-07-29T17:51:57;2.47;;;1.48;;
64335;SDS011;50672;53.362;-6.240;2022-07-29T17:55:24;4.15;;;1.30;;
64335;SDS011;50672;53.362;-6.240;2022-07-29T17:58:50;3.30;;;1.40;;
64335;SDS011;50672;53.362;-6.240;2022-07-29T18:02:42;2.92;;;1.40;;
64335;SDS011;50672;53.362;-6.240;2022-07-29T18:05:09;2.17;;;1.23;;
64335;SDS011;50672;53.362;-6.240;2022-07-29T18:07:36;1.40;;;1.30;;
64335;SDS011;50672;53.362;-6.240;2022-07-29T18:10:23;2.73;;;1.70;;
64335;SDS011;50672;53.362;-6.240;2022-07-29T18:13:49;6.13;;;1.17;;
64335;SDS011;50672;53.362;-6.240;2022-07-29T18:16:17;1.70;;;1.30;;
64335;SDS011;50672;53.362;-6.240;2022-07-29T18:20:00;3.40;;;1.63;;
64335;SDS011;50672;53.362;-6.240;2022-07-29T18:23:27;2.13;;;1.27;;
64335;SDS011;50672;53.362;-6.240;2022-07-29T18:26:54;2.93;;;1.50;;